sensor_id;sensor_type;location;lat;lon;timestamp;P1;durP1;ratioP1;P2;durP2;ratioP2
20734;SDS011;10528;52.124;5.196;2022-12-18T00:01:18;64.97;;;30.38;;
20734;SDS011;10528;52.124;5.196;2022-12-18T00:04:01;60.03;;;29.40;;
20734;SDS011;10528;52.124;5.196;2022-12-18T00:06:40;64.30;;;32.38;;
20734;SDS011;10528;52.124;5.196;2022-12-18T00:09:08;67.63;;;32.60;;
20734;SDS011;10528;52.124;5.196;2022-12-18T00:11:35;64.30;;;32.13;;
20734;SDS011;10528;52.124;5.196;2022-12-18T00:14:02;61.55;;;29.92;;
20734;SDS011;10528;52.124;5.196;2022-12-18T00:16:29;62.28;;;31.08;;
20734;SDS011;10528;52.124;5.196;2022-12-18T00:18:59;65.13;;;30.95;;
20734;SDS011;10528;52.124;5.196;2022-12-18T00:21:27;62.58;;;30.73;;
20734;SDS011;10528;52.124;5.196;2022-12-18T00:23:55;61.08;;;31.05;;
20734;SDS011;10528;52.124;5.196;2022-12-18T00:26:28;59.30;;;29.27;;
20734;SDS011;10528;52.124;5.196;2022-12-18T00:29:01;63.15;;;31.55;;
20734;SDS011;10528;52.124;5.196;2022-12-18T00:31:32;58.95;;;30.00;;
20734;SDS011;10528;52.124;5.196;2022-12-18T00:33:59;68.32;;;31.98;;
20734;SDS011;10528;52.124;5.196;2022-12-18T00:36:28;62.20;;;29.73;;
20734;SDS011;10528;52.124;5.196;2022-12-18T00:38:58;59.58;;;30.10;;
20734;SDS011;10528;52.124;5.196;2022-12-18T00:41:27;57.75;;;29.20;;
20734;SDS011;10528;52.124;5.196;2022-12-18T00:44:14;55.80;;;28.85;;
20734;SDS011;10528;52.124;5.196;2022-12-18T00:46:44;58.83;;;29.92;;
20734;SDS011;10528;52.124;5.196;2022-12-18T00:49:13;57.55;;;29.00;;
20734;SDS011;10528;52.124;5.196;2022-12-18T00:51:44;56.00;;;27.33;;
20734;SDS011;10528;52.124;5.196;2022-12-18T00:54:11;57.03;;;29.52;;
20734;SDS011;10528;52.124;5.196;2022-12-18T00:56:39;60.47;;;30.65;;
20734;SDS011;10528;52.124;5.196;2022-12-18T00:59:14;60.45;;;29.67;;
20734;SDS011;10528;52.124;5.196;2022-12-18T01:01:44;58.58;;;29.88;;
20734;SDS011;10528;52.124;5.196;2022-12-18T01:04:13;56.88;;;30.25;;
20734;SDS011;10528;52.124;5.196;2022-12-18T01:06:43;56.25;;;28.33;;
20734;SDS011;10528;52.124;5.196;2022-12-18T01:09:10;57.30;;;28.77;;
20734;SDS011;10528;52.124;5.196;2022-12-18T01:11:37;55.28;;;28.35;;
20734;SDS011;10528;52.124;5.196;2022-12-18T01:14:04;54.72;;;27.92;;
20734;SDS011;10528;52.124;5.196;2022-12-18T01:16:31;54.47;;;27.17;;
20734;SDS011;10528;52.124;5.196;2022-12-18T01:18:58;60.90;;;30.35;;
20734;SDS011;10528;52.124;5.196;2022-12-18T01:21:26;56.03;;;28.38;;
20734;SDS011;10528;52.124;5.196;2022-12-18T01:23:53;59.83;;;31.27;;
20734;SDS011;10528;52.124;5.196;2022-12-18T01:26:22;59.60;;;30.92;;
20734;SDS011;10528;52.124;5.196;2022-12-18T01:28:51;60.20;;;29.92;;
20734;SDS011;10528;52.124;5.196;2022-12-18T01:31:23;61.15;;;29.50;;
20734;SDS011;10528;52.124;5.196;2022-12-18T01:33:56;59.13;;;30.30;;
20734;SDS011;10528;52.124;5.196;2022-12-18T01:36:27;59.35;;;28.95;;
20734;SDS011;10528;52.124;5.196;2022-12-18T01:38:59;58.08;;;29.85;;
20734;SDS011;10528;52.124;5.196;2022-12-18T01:41:32;65.35;;;30.55;;
20734;SDS011;10528;52.124;5.196;2022-12-18T01:47:36;64.30;;;30.73;;
20734;SDS011;10528;52.124;5.196;2022-12-18T01:50:19;65.25;;;31.02;;
20734;SDS011;10528;52.124;5.196;2022-12-18T01:52:47;62.95;;;31.50;;
20734;SDS011;10528;52.124;5.196;2022-12-18T01:55:19;71.53;;;32.53;;
20734;SDS011;10528;52.124;5.196;2022-12-18T01:57:52;64.53;;;31.10;;
20734;SDS011;10528;52.124;5.196;2022-12-18T02:00:24;63.97;;;32.00;;
20734;SDS011;10528;52.124;5.196;2022-12-18T02:02:52;64.03;;;31.73;;
20734;SDS011;10528;52.124;5.196;2022-12-18T02:05:25;61.28;;;31.25;;
20734;SDS011;10528;52.124;5.196;2022-12-18T02:08:16;63.92;;;30.80;;
20734;SDS011;10528;52.124;5.196;2022-12-18T02:11:07;64.35;;;29.85;;
20734;SDS011;10528;52.124;5.196;2022-12-18T02:14:11;58.70;;;28.92;;
20734;SDS011;10528;52.124;5.196;2022-12-18T02:17:22;57.80;;;27.70;;
20734;SDS011;10528;52.124;5.196;2022-12-18T02:25:58;57.55;;;28.55;;
20734;SDS011;10528;52.124;5.196;2022-12-18T02:28:53;55.53;;;28.10;;
20734;SDS011;10528;52.124;5.196;2022-12-18T02:31:31;56.17;;;27.92;;
20734;SDS011;10528;52.124;5.196;2022-12-18T02:34:06;57.25;;;28.92;;
20734;SDS011;10528;52.124;5.196;2022-12-18T02:36:38;56.40;;;29.02;;
20734;SDS011;10528;52.124;5.196;2022-12-18T02:39:09;55.45;;;27.60;;
20734;SDS011;10528;52.124;5.196;2022-12-18T02:41:47;56.65;;;27.98;;
20734;SDS011;10528;52.124;5.196;2022-12-18T02:44:15;51.58;;;27.17;;
20734;SDS011;10528;52.124;5.196;2022-12-18T02:46:45;56.17;;;27.30;;
20734;SDS011;10528;52.124;5.196;2022-12-18T02:52:30;59.67;;;28.33;;
20734;SDS011;10528;52.124;5.196;2022-12-18T02:58:43;51.35;;;27.75;;
20734;SDS011;10528;52.124;5.196;2022-12-18T03:04:58;56.95;;;27.27;;
20734;SDS011;10528;52.124;5.196;2022-12-18T03:07:39;56.03;;;27.48;;
20734;SDS011;10528;52.124;5.196;2022-12-18T03:10:29;57.55;;;27.50;;
20734;SDS011;10528;52.124;5.196;2022-12-18T03:13:09;56.50;;;28.00;;
20734;SDS011;10528;52.124;5.196;2022-12-18T03:15:50;55.70;;;26.70;;
20734;SDS011;10528;52.124;5.196;2022-12-18T03:18:24;57.20;;;27.30;;
20734;SDS011;10528;52.124;5.196;2022-12-18T03:21:03;56.53;;;27.08;;
20734;SDS011;10528;52.124;5.196;2022-12-18T03:23:36;57.83;;;28.05;;
20734;SDS011;10528;52.124;5.196;2022-12-18T03:26:14;52.35;;;26.00;;
20734;SDS011;10528;52.124;5.196;2022-12-18T03:28:51;60.78;;;29.90;;
20734;SDS011;10528;52.124;5.196;2022-12-18T03:31:37;58.35;;;29.35;;
20734;SDS011;10528;52.124;5.196;2022-12-18T03:34:09;51.60;;;25.95;;
20734;SDS011;10528;52.124;5.196;2022-12-18T03:36:45;60.40;;;28.45;;
20734;SDS011;10528;52.124;5.196;2022-12-18T03:39:13;55.95;;;27.30;;
20734;SDS011;10528;52.124;5.196;2022-12-18T03:52:57;53.55;;;27.48;;
20734;SDS011;10528;52.124;5.196;2022-12-18T03:55:35;54.50;;;26.55;;
20734;SDS011;10528;52.124;5.196;2022-12-18T03:58:05;52.28;;;27.02;;
20734;SDS011;10528;52.124;5.196;2022-12-18T04:00:49;53.40;;;26.20;;
20734;SDS011;10528;52.124;5.196;2022-12-18T04:03:22;51.72;;;26.35;;
20734;SDS011;10528;52.124;5.196;2022-12-18T04:05:52;54.15;;;27.60;;
20734;SDS011;10528;52.124;5.196;2022-12-18T04:08:22;55.03;;;25.65;;
20734;SDS011;10528;52.124;5.196;2022-12-18T04:11:00;49.10;;;25.85;;
20734;SDS011;10528;52.124;5.196;2022-12-18T04:13:28;49.25;;;27.35;;
20734;SDS011;10528;52.124;5.196;2022-12-18T04:16:01;48.13;;;26.92;;
20734;SDS011;10528;52.124;5.196;2022-12-18T04:18:29;51.15;;;25.55;;
20734;SDS011;10528;52.124;5.196;2022-12-18T04:20:58;47.67;;;24.83;;
20734;SDS011;10528;52.124;5.196;2022-12-18T04:23:25;48.38;;;24.33;;
20734;SDS011;10528;52.124;5.196;2022-12-18T04:25:55;49.33;;;25.00;;
20734;SDS011;10528;52.124;5.196;2022-12-18T04:28:37;45.50;;;24.73;;
20734;SDS011;10528;52.124;5.196;2022-12-18T04:31:04;44.15;;;23.35;;
20734;SDS011;10528;52.124;5.196;2022-12-18T04:33:31;41.78;;;22.58;;
20734;SDS011;10528;52.124;5.196;2022-12-18T04:35:58;40.47;;;23.38;;
20734;SDS011;10528;52.124;5.196;2022-12-18T04:38:26;43.20;;;22.13;;
20734;SDS011;10528;52.124;5.196;2022-12-18T04:41:01;44.97;;;23.83;;
20734;SDS011;10528;52.124;5.196;2022-12-18T04:43:28;40.95;;;21.50;;
20734;SDS011;10528;52.124;5.196;2022-12-18T04:46:04;41.50;;;21.70;;
20734;SDS011;10528;52.124;5.196;2022-12-18T04:48:34;39.65;;;21.48;;
20734;SDS011;10528;52.124;5.196;2022-12-18T04:51:01;41.80;;;21.98;;
20734;SDS011;10528;52.124;5.196;2022-12-18T04:53:29;42.80;;;22.20;;
20734;SDS011;10528;52.124;5.196;2022-12-18T04:56:30;36.13;;;21.02;;
20734;SDS011;10528;52.124;5.196;2022-12-18T04:58:49;39.95;;;21.38;;
20734;SDS011;10528;52.124;5.196;2022-12-18T05:01:17;40.13;;;21.35;;
20734;SDS011;10528;52.124;5.196;2022-12-18T05:03:44;38.25;;;20.42;;
20734;SDS011;10528;52.124;5.196;2022-12-18T05:06:11;38.30;;;21.05;;
20734;SDS011;10528;52.124;5.196;2022-12-18T05:08:38;40.78;;;20.45;;
20734;SDS011;10528;52.124;5.196;2022-12-18T05:11:07;38.97;;;21.20;;
20734;SDS011;10528;52.124;5.196;2022-12-18T05:13:38;38.10;;;20.23;;
20734;SDS011;10528;52.124;5.196;2022-12-18T05:16:06;37.80;;;20.42;;
20734;SDS011;10528;52.124;5.196;2022-12-18T05:18:33;39.05;;;20.35;;
20734;SDS011;10528;52.124;5.196;2022-12-18T05:21:01;40.58;;;20.30;;
20734;SDS011;10528;52.124;5.196;2022-12-18T05:23:29;38.85;;;20.77;;
20734;SDS011;10528;52.124;5.196;2022-12-18T05:25:59;35.70;;;19.75;;
20734;SDS011;10528;52.124;5.196;2022-12-18T05:28:29;32.00;;;18.60;;
20734;SDS011;10528;52.124;5.196;2022-12-18T05:31:00;36.95;;;18.58;;
20734;SDS011;10528;52.124;5.196;2022-12-18T05:33:30;39.60;;;19.58;;
20734;SDS011;10528;52.124;5.196;2022-12-18T05:36:01;37.17;;;17.77;;
20734;SDS011;10528;52.124;5.196;2022-12-18T05:38:30;32.47;;;18.65;;
20734;SDS011;10528;52.124;5.196;2022-12-18T05:40:59;34.03;;;18.05;;
20734;SDS011;10528;52.124;5.196;2022-12-18T05:43:26;32.38;;;18.10;;
20734;SDS011;10528;52.124;5.196;2022-12-18T05:45:53;33.08;;;18.13;;
20734;SDS011;10528;52.124;5.196;2022-12-18T05:48:20;28.25;;;16.27;;
20734;SDS011;10528;52.124;5.196;2022-12-18T05:50:48;30.38;;;17.15;;
20734;SDS011;10528;52.124;5.196;2022-12-18T05:53:17;29.45;;;16.83;;
20734;SDS011;10528;52.124;5.196;2022-12-18T05:55:46;31.85;;;17.08;;
20734;SDS011;10528;52.124;5.196;2022-12-18T05:58:14;29.48;;;16.02;;
20734;SDS011;10528;52.124;5.196;2022-12-18T06:00:42;29.23;;;17.00;;
20734;SDS011;10528;52.124;5.196;2022-12-18T06:03:12;26.55;;;16.05;;
20734;SDS011;10528;52.124;5.196;2022-12-18T06:05:43;27.58;;;16.70;;
20734;SDS011;10528;52.124;5.196;2022-12-18T06:08:12;25.85;;;15.35;;
20734;SDS011;10528;52.124;5.196;2022-12-18T06:10:40;29.55;;;16.48;;
20734;SDS011;10528;52.124;5.196;2022-12-18T06:13:08;24.48;;;16.05;;
20734;SDS011;10528;52.124;5.196;2022-12-18T06:15:38;25.95;;;15.45;;
20734;SDS011;10528;52.124;5.196;2022-12-18T06:18:05;24.98;;;15.05;;
20734;SDS011;10528;52.124;5.196;2022-12-18T06:20:31;29.10;;;16.17;;
20734;SDS011;10528;52.124;5.196;2022-12-18T06:22:59;26.83;;;15.35;;
20734;SDS011;10528;52.124;5.196;2022-12-18T06:25:26;26.70;;;15.02;;
20734;SDS011;10528;52.124;5.196;2022-12-18T06:27:53;23.98;;;14.50;;
20734;SDS011;10528;52.124;5.196;2022-12-18T06:30:20;25.60;;;15.45;;
20734;SDS011;10528;52.124;5.196;2022-12-18T06:32:48;24.15;;;14.38;;
20734;SDS011;10528;52.124;5.196;2022-12-18T06:35:22;27.20;;;15.20;;
20734;SDS011;10528;52.124;5.196;2022-12-18T06:37:49;24.00;;;14.40;;
20734;SDS011;10528;52.124;5.196;2022-12-18T06:40:16;26.15;;;15.73;;
20734;SDS011;10528;52.124;5.196;2022-12-18T06:42:43;24.30;;;14.18;;
20734;SDS011;10528;52.124;5.196;2022-12-18T06:45:10;24.05;;;14.90;;
20734;SDS011;10528;52.124;5.196;2022-12-18T06:47:40;24.25;;;14.00;;
20734;SDS011;10528;52.124;5.196;2022-12-18T06:50:07;27.55;;;14.85;;
20734;SDS011;10528;52.124;5.196;2022-12-18T06:52:34;24.58;;;14.82;;
20734;SDS011;10528;52.124;5.196;2022-12-18T06:55:01;24.42;;;14.18;;
20734;SDS011;10528;52.124;5.196;2022-12-18T06:57:29;24.92;;;14.70;;
20734;SDS011;10528;52.124;5.196;2022-12-18T06:59:55;25.83;;;13.82;;
20734;SDS011;10528;52.124;5.196;2022-12-18T07:02:22;22.98;;;14.30;;
20734;SDS011;10528;52.124;5.196;2022-12-18T07:04:49;24.17;;;14.10;;
20734;SDS011;10528;52.124;5.196;2022-12-18T07:07:16;23.17;;;14.77;;
20734;SDS011;10528;52.124;5.196;2022-12-18T07:09:44;24.90;;;14.98;;
20734;SDS011;10528;52.124;5.196;2022-12-18T07:12:10;25.83;;;14.93;;
20734;SDS011;10528;52.124;5.196;2022-12-18T07:14:37;24.58;;;13.95;;
20734;SDS011;10528;52.124;5.196;2022-12-18T07:17:04;26.63;;;15.10;;
20734;SDS011;10528;52.124;5.196;2022-12-18T07:19:32;24.90;;;13.63;;
20734;SDS011;10528;52.124;5.196;2022-12-18T07:21:59;25.05;;;14.25;;
20734;SDS011;10528;52.124;5.196;2022-12-18T07:24:26;25.02;;;14.40;;
20734;SDS011;10528;52.124;5.196;2022-12-18T07:26:53;23.92;;;14.57;;
20734;SDS011;10528;52.124;5.196;2022-12-18T07:29:20;21.48;;;14.05;;
20734;SDS011;10528;52.124;5.196;2022-12-18T07:31:47;24.55;;;14.25;;
20734;SDS011;10528;52.124;5.196;2022-12-18T07:34:15;22.95;;;14.35;;
20734;SDS011;10528;52.124;5.196;2022-12-18T07:36:42;23.15;;;14.48;;
20734;SDS011;10528;52.124;5.196;2022-12-18T07:39:12;24.45;;;13.65;;
20734;SDS011;10528;52.124;5.196;2022-12-18T07:41:39;25.17;;;14.02;;
20734;SDS011;10528;52.124;5.196;2022-12-18T07:44:14;23.45;;;15.70;;
20734;SDS011;10528;52.124;5.196;2022-12-18T07:46:41;27.65;;;15.93;;
20734;SDS011;10528;52.124;5.196;2022-12-18T07:49:08;23.42;;;15.05;;
20734;SDS011;10528;52.124;5.196;2022-12-18T07:51:35;25.55;;;15.57;;
20734;SDS011;10528;52.124;5.196;2022-12-18T07:54:01;24.90;;;14.75;;
20734;SDS011;10528;52.124;5.196;2022-12-18T07:56:28;23.67;;;15.18;;
20734;SDS011;10528;52.124;5.196;2022-12-18T07:58:57;26.60;;;14.63;;
20734;SDS011;10528;52.124;5.196;2022-12-18T08:01:28;23.27;;;15.20;;
20734;SDS011;10528;52.124;5.196;2022-12-18T08:03:55;34.80;;;19.95;;
20734;SDS011;10528;52.124;5.196;2022-12-18T08:06:23;31.35;;;18.33;;
20734;SDS011;10528;52.124;5.196;2022-12-18T08:08:51;28.20;;;17.15;;
20734;SDS011;10528;52.124;5.196;2022-12-18T08:11:20;26.63;;;15.95;;
20734;SDS011;10528;52.124;5.196;2022-12-18T08:13:47;24.48;;;15.25;;
20734;SDS011;10528;52.124;5.196;2022-12-18T08:16:15;25.58;;;15.32;;
20734;SDS011;10528;52.124;5.196;2022-12-18T08:18:42;23.63;;;14.60;;
20734;SDS011;10528;52.124;5.196;2022-12-18T08:21:09;23.05;;;14.32;;
20734;SDS011;10528;52.124;5.196;2022-12-18T08:23:49;27.98;;;15.57;;
20734;SDS011;10528;52.124;5.196;2022-12-18T08:26:18;25.35;;;15.25;;
20734;SDS011;10528;52.124;5.196;2022-12-18T08:28:47;23.88;;;13.95;;
20734;SDS011;10528;52.124;5.196;2022-12-18T08:31:16;25.50;;;14.57;;
20734;SDS011;10528;52.124;5.196;2022-12-18T08:33:44;24.58;;;14.40;;
20734;SDS011;10528;52.124;5.196;2022-12-18T08:36:13;26.27;;;15.88;;
20734;SDS011;10528;52.124;5.196;2022-12-18T08:38:40;25.65;;;13.80;;
20734;SDS011;10528;52.124;5.196;2022-12-18T08:41:08;23.15;;;15.35;;
20734;SDS011;10528;52.124;5.196;2022-12-18T08:43:38;25.30;;;15.20;;
20734;SDS011;10528;52.124;5.196;2022-12-18T08:46:25;25.10;;;15.05;;
20734;SDS011;10528;52.124;5.196;2022-12-18T08:48:57;22.40;;;14.93;;
20734;SDS011;10528;52.124;5.196;2022-12-18T08:51:24;24.55;;;14.85;;
20734;SDS011;10528;52.124;5.196;2022-12-18T08:53:51;22.13;;;14.68;;
20734;SDS011;10528;52.124;5.196;2022-12-18T08:56:18;23.08;;;14.15;;
20734;SDS011;10528;52.124;5.196;2022-12-18T08:58:45;25.13;;;14.98;;
20734;SDS011;10528;52.124;5.196;2022-12-18T09:01:12;22.63;;;14.40;;
20734;SDS011;10528;52.124;5.196;2022-12-18T09:03:40;22.80;;;14.57;;
20734;SDS011;10528;52.124;5.196;2022-12-18T09:06:08;24.15;;;14.77;;
20734;SDS011;10528;52.124;5.196;2022-12-18T09:08:35;23.60;;;14.57;;
20734;SDS011;10528;52.124;5.196;2022-12-18T09:11:03;20.38;;;13.25;;
20734;SDS011;10528;52.124;5.196;2022-12-18T09:13:30;25.25;;;14.95;;
20734;SDS011;10528;52.124;5.196;2022-12-18T09:15:58;19.73;;;13.40;;
20734;SDS011;10528;52.124;5.196;2022-12-18T09:18:25;25.77;;;15.30;;
20734;SDS011;10528;52.124;5.196;2022-12-18T09:20:51;23.38;;;13.40;;
20734;SDS011;10528;52.124;5.196;2022-12-18T09:23:19;21.90;;;14.13;;
20734;SDS011;10528;52.124;5.196;2022-12-18T09:25:47;22.95;;;14.02;;
20734;SDS011;10528;52.124;5.196;2022-12-18T09:28:18;21.48;;;13.20;;
20734;SDS011;10528;52.124;5.196;2022-12-18T09:30:46;20.73;;;13.30;;
20734;SDS011;10528;52.124;5.196;2022-12-18T09:33:16;21.60;;;14.15;;
20734;SDS011;10528;52.124;5.196;2022-12-18T09:35:43;23.45;;;14.02;;
20734;SDS011;10528;52.124;5.196;2022-12-18T09:38:14;21.98;;;14.38;;
20734;SDS011;10528;52.124;5.196;2022-12-18T09:40:45;20.83;;;14.07;;
20734;SDS011;10528;52.124;5.196;2022-12-18T09:43:18;22.92;;;14.00;;
20734;SDS011;10528;52.124;5.196;2022-12-18T09:46:00;23.52;;;14.20;;
20734;SDS011;10528;52.124;5.196;2022-12-18T09:48:40;22.80;;;13.98;;
20734;SDS011;10528;52.124;5.196;2022-12-18T09:51:14;22.85;;;13.55;;
20734;SDS011;10528;52.124;5.196;2022-12-18T09:53:47;20.27;;;13.82;;
20734;SDS011;10528;52.124;5.196;2022-12-18T09:56:22;24.98;;;15.07;;
20734;SDS011;10528;52.124;5.196;2022-12-18T09:58:59;22.95;;;13.80;;
20734;SDS011;10528;52.124;5.196;2022-12-18T10:01:28;22.80;;;13.80;;
20734;SDS011;10528;52.124;5.196;2022-12-18T10:04:09;22.70;;;14.30;;
20734;SDS011;10528;52.124;5.196;2022-12-18T10:12:21;20.30;;;12.68;;
20734;SDS011;10528;52.124;5.196;2022-12-18T10:15:17;22.17;;;13.52;;
20734;SDS011;10528;52.124;5.196;2022-12-18T10:21:03;21.50;;;14.15;;
20734;SDS011;10528;52.124;5.196;2022-12-18T10:23:39;23.77;;;13.65;;
20734;SDS011;10528;52.124;5.196;2022-12-18T10:26:42;20.40;;;13.52;;
20734;SDS011;10528;52.124;5.196;2022-12-18T10:29:13;19.17;;;12.65;;
20734;SDS011;10528;52.124;5.196;2022-12-18T10:31:42;22.08;;;14.63;;
20734;SDS011;10528;52.124;5.196;2022-12-18T10:34:10;24.13;;;14.43;;
20734;SDS011;10528;52.124;5.196;2022-12-18T10:36:40;21.33;;;13.02;;
20734;SDS011;10528;52.124;5.196;2022-12-18T10:39:18;24.48;;;14.70;;
20734;SDS011;10528;52.124;5.196;2022-12-18T10:41:49;22.40;;;13.73;;
20734;SDS011;10528;52.124;5.196;2022-12-18T10:47:03;19.15;;;12.18;;
20734;SDS011;10528;52.124;5.196;2022-12-18T10:49:37;23.42;;;13.27;;
20734;SDS011;10528;52.124;5.196;2022-12-18T10:52:20;23.17;;;12.98;;
20734;SDS011;10528;52.124;5.196;2022-12-18T10:55:01;22.23;;;13.38;;
20734;SDS011;10528;52.124;5.196;2022-12-18T11:00:24;21.02;;;13.57;;
20734;SDS011;10528;52.124;5.196;2022-12-18T11:02:56;21.70;;;13.10;;
20734;SDS011;10528;52.124;5.196;2022-12-18T11:05:26;23.85;;;14.35;;
20734;SDS011;10528;52.124;5.196;2022-12-18T11:07:56;21.13;;;13.23;;
20734;SDS011;10528;52.124;5.196;2022-12-18T11:10:28;20.60;;;12.85;;
20734;SDS011;10528;52.124;5.196;2022-12-18T11:13:15;25.67;;;13.50;;
20734;SDS011;10528;52.124;5.196;2022-12-18T11:15:51;20.67;;;13.25;;
20734;SDS011;10528;52.124;5.196;2022-12-18T11:18:26;20.27;;;12.80;;
20734;SDS011;10528;52.124;5.196;2022-12-18T11:21:06;20.35;;;12.48;;
20734;SDS011;10528;52.124;5.196;2022-12-18T11:23:36;21.67;;;13.20;;
20734;SDS011;10528;52.124;5.196;2022-12-18T11:26:15;22.92;;;12.50;;
20734;SDS011;10528;52.124;5.196;2022-12-18T11:28:44;21.25;;;12.43;;
20734;SDS011;10528;52.124;5.196;2022-12-18T11:31:18;22.95;;;13.82;;
20734;SDS011;10528;52.124;5.196;2022-12-18T11:34:11;21.27;;;12.98;;
20734;SDS011;10528;52.124;5.196;2022-12-18T11:36:57;22.15;;;12.52;;
20734;SDS011;10528;52.124;5.196;2022-12-18T11:39:31;21.35;;;12.70;;
20734;SDS011;10528;52.124;5.196;2022-12-18T11:51:00;21.75;;;12.75;;
20734;SDS011;10528;52.124;5.196;2022-12-18T11:53:31;21.10;;;12.32;;
20734;SDS011;10528;52.124;5.196;2022-12-18T12:05:16;20.50;;;12.80;;
20734;SDS011;10528;52.124;5.196;2022-12-18T12:22:53;20.45;;;12.05;;
20734;SDS011;10528;52.124;5.196;2022-12-18T12:26:10;22.27;;;13.25;;
20734;SDS011;10528;52.124;5.196;2022-12-18T12:35:17;23.70;;;11.95;;
20734;SDS011;10528;52.124;5.196;2022-12-18T12:38:14;20.40;;;12.07;;
20734;SDS011;10528;52.124;5.196;2022-12-18T12:40:54;20.52;;;11.85;;
20734;SDS011;10528;52.124;5.196;2022-12-18T12:46:17;20.63;;;12.75;;
20734;SDS011;10528;52.124;5.196;2022-12-18T12:48:55;20.38;;;14.15;;
20734;SDS011;10528;52.124;5.196;2022-12-18T12:51:30;19.80;;;12.70;;
20734;SDS011;10528;52.124;5.196;2022-12-18T12:54:03;20.88;;;12.20;;
20734;SDS011;10528;52.124;5.196;2022-12-18T12:59:29;19.95;;;13.43;;
20734;SDS011;10528;52.124;5.196;2022-12-18T13:02:14;19.50;;;13.07;;
20734;SDS011;10528;52.124;5.196;2022-12-18T13:04:58;21.25;;;13.38;;
20734;SDS011;10528;52.124;5.196;2022-12-18T13:07:45;20.90;;;12.60;;
20734;SDS011;10528;52.124;5.196;2022-12-18T13:10:26;21.27;;;13.00;;
20734;SDS011;10528;52.124;5.196;2022-12-18T13:15:40;21.05;;;12.55;;
20734;SDS011;10528;52.124;5.196;2022-12-18T13:18:14;22.35;;;13.60;;
20734;SDS011;10528;52.124;5.196;2022-12-18T13:20:47;23.48;;;13.98;;
20734;SDS011;10528;52.124;5.196;2022-12-18T13:34:17;20.70;;;13.27;;
20734;SDS011;10528;52.124;5.196;2022-12-18T13:36:54;21.60;;;12.82;;
20734;SDS011;10528;52.124;5.196;2022-12-18T13:39:38;21.02;;;12.88;;
20734;SDS011;10528;52.124;5.196;2022-12-18T13:44:32;23.88;;;14.18;;
20734;SDS011;10528;52.124;5.196;2022-12-18T13:50:01;21.27;;;13.30;;
20734;SDS011;10528;52.124;5.196;2022-12-18T13:52:50;19.58;;;12.98;;
20734;SDS011;10528;52.124;5.196;2022-12-18T13:55:19;21.52;;;13.63;;
20734;SDS011;10528;52.124;5.196;2022-12-18T13:57:48;21.25;;;13.30;;
20734;SDS011;10528;52.124;5.196;2022-12-18T14:00:26;21.55;;;13.13;;
20734;SDS011;10528;52.124;5.196;2022-12-18T14:02:56;21.10;;;12.95;;
20734;SDS011;10528;52.124;5.196;2022-12-18T14:07:53;21.35;;;12.63;;
20734;SDS011;10528;52.124;5.196;2022-12-18T14:10:25;23.33;;;13.70;;
20734;SDS011;10528;52.124;5.196;2022-12-18T14:13:23;21.80;;;13.30;;
20734;SDS011;10528;52.124;5.196;2022-12-18T14:15:55;20.75;;;13.45;;
20734;SDS011;10528;52.124;5.196;2022-12-18T14:21:18;22.70;;;13.77;;
20734;SDS011;10528;52.124;5.196;2022-12-18T14:23:49;19.50;;;12.52;;
20734;SDS011;10528;52.124;5.196;2022-12-18T14:26:48;22.75;;;13.77;;
20734;SDS011;10528;52.124;5.196;2022-12-18T14:29:28;22.48;;;13.25;;
20734;SDS011;10528;52.124;5.196;2022-12-18T14:34:44;20.50;;;13.48;;
20734;SDS011;10528;52.124;5.196;2022-12-18T14:37:21;21.08;;;13.30;;
20734;SDS011;10528;52.124;5.196;2022-12-18T14:39:52;22.58;;;13.57;;
20734;SDS011;10528;52.124;5.196;2022-12-18T14:42:21;21.27;;;13.48;;
20734;SDS011;10528;52.124;5.196;2022-12-18T14:44:48;22.58;;;14.05;;
20734;SDS011;10528;52.124;5.196;2022-12-18T14:47:34;22.92;;;13.18;;
20734;SDS011;10528;52.124;5.196;2022-12-18T14:50:01;25.23;;;15.27;;
20734;SDS011;10528;52.124;5.196;2022-12-18T14:52:29;22.85;;;14.80;;
20734;SDS011;10528;52.124;5.196;2022-12-18T14:54:58;19.27;;;12.63;;
20734;SDS011;10528;52.124;5.196;2022-12-18T14:57:25;22.52;;;14.32;;
20734;SDS011;10528;52.124;5.196;2022-12-18T15:00:10;22.60;;;13.75;;
20734;SDS011;10528;52.124;5.196;2022-12-18T15:02:48;22.50;;;14.18;;
20734;SDS011;10528;52.124;5.196;2022-12-18T15:05:23;22.83;;;13.90;;
20734;SDS011;10528;52.124;5.196;2022-12-18T15:07:55;23.08;;;14.68;;
20734;SDS011;10528;52.124;5.196;2022-12-18T15:10:26;26.00;;;15.25;;
20734;SDS011;10528;52.124;5.196;2022-12-18T15:18:11;24.65;;;16.08;;
20734;SDS011;10528;52.124;5.196;2022-12-18T15:23:21;24.88;;;15.55;;
20734;SDS011;10528;52.124;5.196;2022-12-18T15:26:12;25.38;;;15.15;;
20734;SDS011;10528;52.124;5.196;2022-12-18T15:28:46;22.75;;;14.27;;
20734;SDS011;10528;52.124;5.196;2022-12-18T15:31:24;23.00;;;14.75;;
20734;SDS011;10528;52.124;5.196;2022-12-18T15:34:08;26.05;;;15.93;;
20734;SDS011;10528;52.124;5.196;2022-12-18T15:36:39;25.48;;;15.10;;
20734;SDS011;10528;52.124;5.196;2022-12-18T15:39:06;25.05;;;15.88;;
20734;SDS011;10528;52.124;5.196;2022-12-18T15:41:38;23.40;;;15.05;;
20734;SDS011;10528;52.124;5.196;2022-12-18T15:44:23;24.13;;;15.55;;
20734;SDS011;10528;52.124;5.196;2022-12-18T15:46:51;26.30;;;16.38;;
20734;SDS011;10528;52.124;5.196;2022-12-18T15:49:21;26.70;;;15.52;;
20734;SDS011;10528;52.124;5.196;2022-12-18T15:51:50;27.40;;;15.93;;
20734;SDS011;10528;52.124;5.196;2022-12-18T15:54:20;23.35;;;14.65;;
20734;SDS011;10528;52.124;5.196;2022-12-18T15:57:09;26.08;;;14.95;;
20734;SDS011;10528;52.124;5.196;2022-12-18T15:59:53;24.40;;;15.48;;
20734;SDS011;10528;52.124;5.196;2022-12-18T16:02:24;27.15;;;15.25;;
20734;SDS011;10528;52.124;5.196;2022-12-18T16:04:52;25.67;;;15.88;;
20734;SDS011;10528;52.124;5.196;2022-12-18T16:07:20;29.50;;;16.60;;
20734;SDS011;10528;52.124;5.196;2022-12-18T16:09:51;26.63;;;16.00;;
20734;SDS011;10528;52.124;5.196;2022-12-18T16:12:21;28.27;;;16.40;;
20734;SDS011;10528;52.124;5.196;2022-12-18T16:14:51;24.63;;;16.05;;
20734;SDS011;10528;52.124;5.196;2022-12-18T16:17:19;27.38;;;15.40;;
20734;SDS011;10528;52.124;5.196;2022-12-18T16:19:46;26.42;;;16.10;;
20734;SDS011;10528;52.124;5.196;2022-12-18T16:22:21;26.02;;;15.65;;
20734;SDS011;10528;52.124;5.196;2022-12-18T16:24:51;27.23;;;16.70;;
20734;SDS011;10528;52.124;5.196;2022-12-18T16:27:20;30.23;;;16.98;;
20734;SDS011;10528;52.124;5.196;2022-12-18T16:29:48;28.63;;;15.68;;
20734;SDS011;10528;52.124;5.196;2022-12-18T16:32:17;25.23;;;16.13;;
20734;SDS011;10528;52.124;5.196;2022-12-18T16:34:46;26.77;;;16.33;;
20734;SDS011;10528;52.124;5.196;2022-12-18T16:37:14;28.95;;;16.50;;
20734;SDS011;10528;52.124;5.196;2022-12-18T16:39:42;24.55;;;15.52;;
20734;SDS011;10528;52.124;5.196;2022-12-18T16:42:13;26.00;;;16.38;;
20734;SDS011;10528;52.124;5.196;2022-12-18T16:44:46;27.95;;;16.58;;
20734;SDS011;10528;52.124;5.196;2022-12-18T16:47:15;25.85;;;16.05;;
20734;SDS011;10528;52.124;5.196;2022-12-18T16:49:43;26.23;;;16.40;;
20734;SDS011;10528;52.124;5.196;2022-12-18T16:52:11;29.30;;;17.25;;
20734;SDS011;10528;52.124;5.196;2022-12-18T16:54:39;28.63;;;17.40;;
20734;SDS011;10528;52.124;5.196;2022-12-18T16:57:06;26.55;;;16.48;;